sensor_id;sensor_type;location;lat;lon;timestamp;P1;durP1;ratioP1;P2;durP2;ratioP2
13443;SDS011;6794;59.218;18.218;2023-01-24T00:01:13;4.37;;;3.53;;
13443;SDS011;6794;59.218;18.218;2023-01-24T00:03:39;4.63;;;3.40;;
13443;SDS011;6794;59.218;18.218;2023-01-24T00:06:05;4.07;;;3.42;;
13443;SDS011;6794;59.218;18.218;2023-01-24T00:08:31;4.63;;;2.67;;
13443;SDS011;6794;59.218;18.218;2023-01-24T00:11:01;4.70;;;3.37;;
13443;SDS011;6794;59.218;18.218;2023-01-24T00:13:27;3.93;;;3.03;;
13443;SDS011;6794;59.218;18.218;2023-01-24T00:18:32;4.60;;;3.60;;
13443;SDS011;6794;59.218;18.218;2023-01-24T00:21:02;4.70;;;3.70;;
13443;SDS011;6794;59.218;18.218;2023-01-24T00:23:28;3.70;;;2.93;;
13443;SDS011;6794;59.218;18.218;2023-01-24T00:25:54;4.50;;;3.20;;
13443;SDS011;6794;59.218;18.218;2023-01-24T00:28:20;6.80;;;3.70;;
13443;SDS011;6794;59.218;18.218;2023-01-24T00:30:46;4.60;;;3.50;;
13443;SDS011;6794;59.218;18.218;2023-01-24T00:33:12;5.60;;;3.70;;
13443;SDS011;6794;59.218;18.218;2023-01-24T00:35:38;3.83;;;3.27;;
13443;SDS011;6794;59.218;18.218;2023-01-24T00:38:04;4.67;;;3.30;;
13443;SDS011;6794;59.218;18.218;2023-01-24T00:40:30;5.45;;;4.03;;
13443;SDS011;6794;59.218;18.218;2023-01-24T00:42:56;5.63;;;3.60;;
13443;SDS011;6794;59.218;18.218;2023-01-24T00:45:22;4.57;;;3.77;;
13443;SDS011;6794;59.218;18.218;2023-01-24T00:47:48;4.50;;;3.50;;
13443;SDS011;6794;59.218;18.218;2023-01-24T00:50:14;4.40;;;3.37;;
13443;SDS011;6794;59.218;18.218;2023-01-24T00:52:40;3.70;;;2.80;;
13443;SDS011;6794;59.218;18.218;2023-01-24T00:55:06;5.53;;;3.50;;
13443;SDS011;6794;59.218;18.218;2023-01-24T00:57:32;3.63;;;3.27;;
13443;SDS011;6794;59.218;18.218;2023-01-24T00:59:58;4.03;;;2.90;;
13443;SDS011;6794;59.218;18.218;2023-01-24T01:02:24;4.37;;;3.20;;
13443;SDS011;6794;59.218;18.218;2023-01-24T01:04:50;3.60;;;2.90;;
13443;SDS011;6794;59.218;18.218;2023-01-24T01:07:16;3.10;;;2.73;;
13443;SDS011;6794;59.218;18.218;2023-01-24T01:09:45;4.40;;;3.30;;
13443;SDS011;6794;59.218;18.218;2023-01-24T01:12:12;3.57;;;2.97;;
13443;SDS011;6794;59.218;18.218;2023-01-24T01:14:38;5.75;;;3.42;;
13443;SDS011;6794;59.218;18.218;2023-01-24T01:17:04;4.37;;;3.37;;
13443;SDS011;6794;59.218;18.218;2023-01-24T01:19:30;4.03;;;3.30;;
13443;SDS011;6794;59.218;18.218;2023-01-24T01:21:56;5.73;;;3.30;;
13443;SDS011;6794;59.218;18.218;2023-01-24T01:24:22;4.67;;;3.03;;
13443;SDS011;6794;59.218;18.218;2023-01-24T01:26:48;3.80;;;3.37;;
13443;SDS011;6794;59.218;18.218;2023-01-24T01:29:14;3.23;;;2.33;;
13443;SDS011;6794;59.218;18.218;2023-01-24T01:31:40;4.03;;;3.63;;
13443;SDS011;6794;59.218;18.218;2023-01-24T01:34:06;4.93;;;3.57;;
13443;SDS011;6794;59.218;18.218;2023-01-24T01:36:32;3.90;;;2.80;;
13443;SDS011;6794;59.218;18.218;2023-01-24T01:38:58;4.17;;;2.90;;
13443;SDS011;6794;59.218;18.218;2023-01-24T01:41:24;3.57;;;3.27;;
13443;SDS011;6794;59.218;18.218;2023-01-24T01:43:50;4.37;;;3.03;;
13443;SDS011;6794;59.218;18.218;2023-01-24T01:46:53;3.07;;;2.77;;
13443;SDS011;6794;59.218;18.218;2023-01-24T01:49:21;5.05;;;3.58;;
13443;SDS011;6794;59.218;18.218;2023-01-24T01:51:49;4.70;;;2.90;;
13443;SDS011;6794;59.218;18.218;2023-01-24T01:56:43;5.23;;;3.20;;
13443;SDS011;6794;59.218;18.218;2023-01-24T01:59:27;4.20;;;3.00;;
13443;SDS011;6794;59.218;18.218;2023-01-24T02:01:55;3.73;;;2.87;;
13443;SDS011;6794;59.218;18.218;2023-01-24T02:04:23;3.03;;;2.50;;
13443;SDS011;6794;59.218;18.218;2023-01-24T02:09:40;3.30;;;2.90;;
13443;SDS011;6794;59.218;18.218;2023-01-24T02:12:17;4.30;;;3.63;;
13443;SDS011;6794;59.218;18.218;2023-01-24T02:14:44;3.73;;;2.97;;
13443;SDS011;6794;59.218;18.218;2023-01-24T02:17:29;3.57;;;3.27;;
13443;SDS011;6794;59.218;18.218;2023-01-24T02:27:47;4.10;;;3.20;;
13443;SDS011;6794;59.218;18.218;2023-01-24T02:30:13;4.77;;;3.70;;
13443;SDS011;6794;59.218;18.218;2023-01-24T02:32:40;3.20;;;2.77;;
13443;SDS011;6794;59.218;18.218;2023-01-24T02:35:06;4.53;;;3.43;;
13443;SDS011;6794;59.218;18.218;2023-01-24T02:37:34;4.17;;;3.57;;
13443;SDS011;6794;59.218;18.218;2023-01-24T02:42:31;3.53;;;2.27;;
13443;SDS011;6794;59.218;18.218;2023-01-24T02:47:27;5.20;;;3.53;;
13443;SDS011;6794;59.218;18.218;2023-01-24T02:49:57;4.43;;;3.20;;
13443;SDS011;6794;59.218;18.218;2023-01-24T02:52:24;4.07;;;3.63;;
13443;SDS011;6794;59.218;18.218;2023-01-24T02:55:08;3.47;;;3.07;;
13443;SDS011;6794;59.218;18.218;2023-01-24T02:57:34;4.83;;;3.07;;
13443;SDS011;6794;59.218;18.218;2023-01-24T03:00:19;4.10;;;3.70;;
13443;SDS011;6794;59.218;18.218;2023-01-24T03:02:45;3.73;;;3.20;;
13443;SDS011;6794;59.218;18.218;2023-01-24T03:05:11;4.00;;;3.10;;
13443;SDS011;6794;59.218;18.218;2023-01-24T03:07:37;4.83;;;3.83;;
13443;SDS011;6794;59.218;18.218;2023-01-24T03:10:10;4.50;;;4.10;;
13443;SDS011;6794;59.218;18.218;2023-01-24T03:12:37;5.10;;;4.10;;
13443;SDS011;6794;59.218;18.218;2023-01-24T03:15:21;3.63;;;3.23;;
13443;SDS011;6794;59.218;18.218;2023-01-24T03:18:08;4.63;;;3.50;;
13443;SDS011;6794;59.218;18.218;2023-01-24T03:20:53;5.20;;;3.60;;
13443;SDS011;6794;59.218;18.218;2023-01-24T03:23:37;5.50;;;4.03;;
13443;SDS011;6794;59.218;18.218;2023-01-24T03:26:22;5.57;;;3.80;;
13443;SDS011;6794;59.218;18.218;2023-01-24T03:29:07;4.93;;;3.90;;
13443;SDS011;6794;59.218;18.218;2023-01-24T03:31:51;5.53;;;4.20;;
13443;SDS011;6794;59.218;18.218;2023-01-24T03:34:36;6.97;;;5.32;;
13443;SDS011;6794;59.218;18.218;2023-01-24T03:37:11;7.83;;;4.70;;
13443;SDS011;6794;59.218;18.218;2023-01-24T03:39:37;4.60;;;3.87;;
13443;SDS011;6794;59.218;18.218;2023-01-24T03:42:23;5.83;;;4.10;;
13443;SDS011;6794;59.218;18.218;2023-01-24T03:44:49;4.07;;;3.67;;
13443;SDS011;6794;59.218;18.218;2023-01-24T03:47:15;5.43;;;4.40;;
13443;SDS011;6794;59.218;18.218;2023-01-24T03:49:41;4.73;;;3.97;;
13443;SDS011;6794;59.218;18.218;2023-01-24T03:52:26;4.43;;;3.67;;
13443;SDS011;6794;59.218;18.218;2023-01-24T03:54:55;5.80;;;4.63;;
13443;SDS011;6794;59.218;18.218;2023-01-24T03:57:21;5.47;;;3.97;;
13443;SDS011;6794;59.218;18.218;2023-01-24T03:59:48;5.00;;;3.90;;
13443;SDS011;6794;59.218;18.218;2023-01-24T04:02:14;5.40;;;3.87;;
13443;SDS011;6794;59.218;18.218;2023-01-24T04:04:40;4.63;;;3.77;;
13443;SDS011;6794;59.218;18.218;2023-01-24T04:07:26;3.85;;;3.17;;
13443;SDS011;6794;59.218;18.218;2023-01-24T04:09:52;5.23;;;3.87;;
13443;SDS011;6794;59.218;18.218;2023-01-24T04:12:18;5.87;;;3.87;;
13443;SDS011;6794;59.218;18.218;2023-01-24T04:14:44;5.17;;;3.53;;
13443;SDS011;6794;59.218;18.218;2023-01-24T04:17:10;5.03;;;3.93;;
13443;SDS011;6794;59.218;18.218;2023-01-24T04:19:36;6.17;;;3.80;;
13443;SDS011;6794;59.218;18.218;2023-01-24T04:22:02;6.37;;;3.93;;
13443;SDS011;6794;59.218;18.218;2023-01-24T04:24:28;5.80;;;3.57;;
13443;SDS011;6794;59.218;18.218;2023-01-24T04:26:54;5.27;;;4.20;;
13443;SDS011;6794;59.218;18.218;2023-01-24T04:29:20;4.97;;;3.80;;
13443;SDS011;6794;59.218;18.218;2023-01-24T04:31:46;7.30;;;3.60;;
13443;SDS011;6794;59.218;18.218;2023-01-24T04:34:12;4.93;;;4.13;;
13443;SDS011;6794;59.218;18.218;2023-01-24T04:36:38;5.30;;;3.63;;
13443;SDS011;6794;59.218;18.218;2023-01-24T04:39:04;6.53;;;4.37;;
13443;SDS011;6794;59.218;18.218;2023-01-24T04:41:30;6.27;;;4.80;;
13443;SDS011;6794;59.218;18.218;2023-01-24T04:43:56;6.75;;;5.90;;
13443;SDS011;6794;59.218;18.218;2023-01-24T04:46:22;7.27;;;4.90;;
13443;SDS011;6794;59.218;18.218;2023-01-24T04:48:48;5.47;;;4.07;;
13443;SDS011;6794;59.218;18.218;2023-01-24T04:51:14;5.43;;;4.00;;
13443;SDS011;6794;59.218;18.218;2023-01-24T04:53:40;6.37;;;4.53;;
13443;SDS011;6794;59.218;18.218;2023-01-24T04:56:07;6.93;;;4.50;;
13443;SDS011;6794;59.218;18.218;2023-01-24T04:58:33;8.00;;;4.33;;
13443;SDS011;6794;59.218;18.218;2023-01-24T05:00:59;5.23;;;3.90;;
13443;SDS011;6794;59.218;18.218;2023-01-24T05:03:25;5.47;;;3.90;;
13443;SDS011;6794;59.218;18.218;2023-01-24T05:05:52;9.33;;;4.20;;
13443;SDS011;6794;59.218;18.218;2023-01-24T05:08:18;7.60;;;4.50;;
13443;SDS011;6794;59.218;18.218;2023-01-24T05:10:44;5.30;;;3.37;;
13443;SDS011;6794;59.218;18.218;2023-01-24T05:13:10;5.50;;;4.27;;
13443;SDS011;6794;59.218;18.218;2023-01-24T05:15:37;5.07;;;3.53;;
13443;SDS011;6794;59.218;18.218;2023-01-24T05:18:03;7.93;;;6.32;;
13443;SDS011;6794;59.218;18.218;2023-01-24T05:20:29;9.07;;;6.70;;
13443;SDS011;6794;59.218;18.218;2023-01-24T05:22:56;10.10;;;5.90;;
13443;SDS011;6794;59.218;18.218;2023-01-24T05:25:22;9.83;;;4.90;;
13443;SDS011;6794;59.218;18.218;2023-01-24T05:27:48;6.50;;;4.50;;
13443;SDS011;6794;59.218;18.218;2023-01-24T05:30:14;7.53;;;4.73;;
13443;SDS011;6794;59.218;18.218;2023-01-24T05:32:40;6.27;;;4.30;;
13443;SDS011;6794;59.218;18.218;2023-01-24T05:35:07;7.13;;;4.77;;
13443;SDS011;6794;59.218;18.218;2023-01-24T05:37:35;8.13;;;5.37;;
13443;SDS011;6794;59.218;18.218;2023-01-24T05:40:02;8.53;;;4.30;;
13443;SDS011;6794;59.218;18.218;2023-01-24T05:42:29;7.00;;;5.07;;
13443;SDS011;6794;59.218;18.218;2023-01-24T05:44:55;7.50;;;4.87;;
13443;SDS011;6794;59.218;18.218;2023-01-24T05:47:21;6.57;;;4.57;;
13443;SDS011;6794;59.218;18.218;2023-01-24T05:49:47;6.70;;;4.97;;
13443;SDS011;6794;59.218;18.218;2023-01-24T05:52:14;10.27;;;6.57;;
13443;SDS011;6794;59.218;18.218;2023-01-24T05:54:49;8.87;;;5.50;;
13443;SDS011;6794;59.218;18.218;2023-01-24T05:57:16;9.20;;;5.30;;
13443;SDS011;6794;59.218;18.218;2023-01-24T05:59:42;8.40;;;4.70;;
13443;SDS011;6794;59.218;18.218;2023-01-24T06:02:08;7.07;;;5.37;;
13443;SDS011;6794;59.218;18.218;2023-01-24T06:04:34;7.00;;;5.10;;
13443;SDS011;6794;59.218;18.218;2023-01-24T06:07:00;6.43;;;4.77;;
13443;SDS011;6794;59.218;18.218;2023-01-24T06:09:26;7.90;;;4.80;;
13443;SDS011;6794;59.218;18.218;2023-01-24T06:11:52;7.63;;;5.27;;
13443;SDS011;6794;59.218;18.218;2023-01-24T06:14:18;7.77;;;5.23;;
13443;SDS011;6794;59.218;18.218;2023-01-24T06:16:45;10.47;;;5.17;;
13443;SDS011;6794;59.218;18.218;2023-01-24T06:19:11;7.40;;;5.57;;
13443;SDS011;6794;59.218;18.218;2023-01-24T06:21:42;10.07;;;5.00;;
13443;SDS011;6794;59.218;18.218;2023-01-24T06:24:11;6.13;;;4.70;;
13443;SDS011;6794;59.218;18.218;2023-01-24T06:26:40;11.70;;;7.20;;
13443;SDS011;6794;59.218;18.218;2023-01-24T06:29:08;10.07;;;6.00;;
13443;SDS011;6794;59.218;18.218;2023-01-24T06:31:38;11.13;;;5.67;;
13443;SDS011;6794;59.218;18.218;2023-01-24T06:39:18;12.50;;;5.23;;
13443;SDS011;6794;59.218;18.218;2023-01-24T06:41:46;8.77;;;5.93;;
13443;SDS011;6794;59.218;18.218;2023-01-24T06:44:12;10.30;;;5.00;;
13443;SDS011;6794;59.218;18.218;2023-01-24T06:46:38;12.27;;;6.70;;
13443;SDS011;6794;59.218;18.218;2023-01-24T06:49:04;13.67;;;6.70;;
13443;SDS011;6794;59.218;18.218;2023-01-24T06:51:30;7.47;;;5.37;;
13443;SDS011;6794;59.218;18.218;2023-01-24T06:53:57;9.40;;;6.17;;
13443;SDS011;6794;59.218;18.218;2023-01-24T06:56:23;15.70;;;6.50;;
13443;SDS011;6794;59.218;18.218;2023-01-24T06:58:49;9.23;;;5.70;;
13443;SDS011;6794;59.218;18.218;2023-01-24T07:01:15;14.38;;;9.50;;
13443;SDS011;6794;59.218;18.218;2023-01-24T07:03:41;11.83;;;6.80;;
13443;SDS011;6794;59.218;18.218;2023-01-24T07:06:07;9.70;;;6.43;;
13443;SDS011;6794;59.218;18.218;2023-01-24T07:08:33;10.73;;;6.30;;
13443;SDS011;6794;59.218;18.218;2023-01-24T07:10:59;9.77;;;5.50;;
13443;SDS011;6794;59.218;18.218;2023-01-24T07:13:25;8.67;;;5.83;;
13443;SDS011;6794;59.218;18.218;2023-01-24T07:15:51;13.63;;;7.50;;
13443;SDS011;6794;59.218;18.218;2023-01-24T07:18:18;9.10;;;5.93;;
13443;SDS011;6794;59.218;18.218;2023-01-24T07:20:44;10.60;;;5.60;;
13443;SDS011;6794;59.218;18.218;2023-01-24T07:25:46;10.03;;;6.30;;
13443;SDS011;6794;59.218;18.218;2023-01-24T07:28:12;13.83;;;6.77;;
13443;SDS011;6794;59.218;18.218;2023-01-24T07:30:38;10.37;;;6.63;;
13443;SDS011;6794;59.218;18.218;2023-01-24T07:33:04;9.17;;;6.00;;
13443;SDS011;6794;59.218;18.218;2023-01-24T07:35:30;12.65;;;7.15;;
13443;SDS011;6794;59.218;18.218;2023-01-24T07:37:56;10.77;;;6.43;;
13443;SDS011;6794;59.218;18.218;2023-01-24T07:40:25;12.33;;;6.10;;
13443;SDS011;6794;59.218;18.218;2023-01-24T07:42:51;12.60;;;6.67;;
13443;SDS011;6794;59.218;18.218;2023-01-24T07:45:17;12.50;;;6.97;;
13443;SDS011;6794;59.218;18.218;2023-01-24T07:47:45;13.20;;;7.67;;
13443;SDS011;6794;59.218;18.218;2023-01-24T07:50:11;11.63;;;6.27;;
13443;SDS011;6794;59.218;18.218;2023-01-24T07:52:37;14.17;;;6.03;;
13443;SDS011;6794;59.218;18.218;2023-01-24T07:55:03;12.97;;;6.50;;
13443;SDS011;6794;59.218;18.218;2023-01-24T07:57:29;11.17;;;6.50;;
13443;SDS011;6794;59.218;18.218;2023-01-24T07:59:55;13.00;;;6.40;;
13443;SDS011;6794;59.218;18.218;2023-01-24T08:02:21;9.80;;;6.03;;
13443;SDS011;6794;59.218;18.218;2023-01-24T08:04:47;10.10;;;5.83;;
13443;SDS011;6794;59.218;18.218;2023-01-24T08:07:13;12.87;;;6.77;;
13443;SDS011;6794;59.218;18.218;2023-01-24T08:09:42;12.53;;;6.40;;
13443;SDS011;6794;59.218;18.218;2023-01-24T08:12:08;19.48;;;11.10;;
13443;SDS011;6794;59.218;18.218;2023-01-24T08:14:34;11.30;;;6.47;;
13443;SDS011;6794;59.218;18.218;2023-01-24T08:17:00;11.27;;;6.13;;
13443;SDS011;6794;59.218;18.218;2023-01-24T08:19:26;10.97;;;5.93;;
13443;SDS011;6794;59.218;18.218;2023-01-24T08:21:52;14.27;;;6.60;;
13443;SDS011;6794;59.218;18.218;2023-01-24T08:24:18;6.87;;;4.47;;
13443;SDS011;6794;59.218;18.218;2023-01-24T08:26:44;11.33;;;6.10;;
13443;SDS011;6794;59.218;18.218;2023-01-24T08:29:13;9.83;;;5.63;;
13443;SDS011;6794;59.218;18.218;2023-01-24T08:31:39;12.70;;;5.97;;
13443;SDS011;6794;59.218;18.218;2023-01-24T08:34:06;10.67;;;6.20;;
13443;SDS011;6794;59.218;18.218;2023-01-24T08:36:32;10.40;;;5.70;;
13443;SDS011;6794;59.218;18.218;2023-01-24T08:38:58;13.33;;;6.17;;
13443;SDS011;6794;59.218;18.218;2023-01-24T08:41:24;12.10;;;5.60;;
13443;SDS011;6794;59.218;18.218;2023-01-24T08:43:53;9.77;;;5.40;;
13443;SDS011;6794;59.218;18.218;2023-01-24T08:46:19;17.25;;;9.13;;
13443;SDS011;6794;59.218;18.218;2023-01-24T08:48:45;10.60;;;6.27;;
13443;SDS011;6794;59.218;18.218;2023-01-24T08:51:11;13.97;;;6.20;;
13443;SDS011;6794;59.218;18.218;2023-01-24T08:53:37;13.83;;;6.13;;
13443;SDS011;6794;59.218;18.218;2023-01-24T08:56:03;12.83;;;5.93;;
13443;SDS011;6794;59.218;18.218;2023-01-24T08:58:29;14.50;;;5.90;;
13443;SDS011;6794;59.218;18.218;2023-01-24T09:00:58;8.67;;;5.30;;
13443;SDS011;6794;59.218;18.218;2023-01-24T09:03:24;12.17;;;6.03;;
13443;SDS011;6794;59.218;18.218;2023-01-24T09:05:55;10.60;;;5.90;;
13443;SDS011;6794;59.218;18.218;2023-01-24T09:08:21;11.87;;;5.87;;
13443;SDS011;6794;59.218;18.218;2023-01-24T09:10:47;11.07;;;5.37;;
13443;SDS011;6794;59.218;18.218;2023-01-24T09:13:13;16.40;;;6.97;;
13443;SDS011;6794;59.218;18.218;2023-01-24T09:15:39;9.87;;;5.00;;
13443;SDS011;6794;59.218;18.218;2023-01-24T09:18:05;9.27;;;5.10;;
13443;SDS011;6794;59.218;18.218;2023-01-24T09:20:31;16.10;;;7.27;;
13443;SDS011;6794;59.218;18.218;2023-01-24T09:22:57;10.97;;;5.17;;
13443;SDS011;6794;59.218;18.218;2023-01-24T09:25:24;9.47;;;5.03;;
13443;SDS011;6794;59.218;18.218;2023-01-24T09:27:52;8.47;;;4.67;;
13443;SDS011;6794;59.218;18.218;2023-01-24T09:30:18;9.27;;;5.37;;
13443;SDS011;6794;59.218;18.218;2023-01-24T09:32:45;16.63;;;9.00;;
13443;SDS011;6794;59.218;18.218;2023-01-24T09:35:11;9.00;;;5.80;;
13443;SDS011;6794;59.218;18.218;2023-01-24T09:37:37;9.67;;;5.40;;
13443;SDS011;6794;59.218;18.218;2023-01-24T09:40:05;11.27;;;10.07;;
13443;SDS011;6794;59.218;18.218;2023-01-24T09:42:39;11.13;;;6.10;;
13443;SDS011;6794;59.218;18.218;2023-01-24T09:50:18;7.70;;;4.40;;
13443;SDS011;6794;59.218;18.218;2023-01-24T09:52:47;9.53;;;5.13;;
13443;SDS011;6794;59.218;18.218;2023-01-24T10:00:18;10.77;;;5.80;;
13443;SDS011;6794;59.218;18.218;2023-01-24T10:02:46;12.13;;;5.53;;
13443;SDS011;6794;59.218;18.218;2023-01-24T10:05:13;9.03;;;3.73;;
13443;SDS011;6794;59.218;18.218;2023-01-24T10:23:04;9.83;;;4.17;;
13443;SDS011;6794;59.218;18.218;2023-01-24T10:25:33;8.77;;;4.57;;
13443;SDS011;6794;59.218;18.218;2023-01-24T10:28:00;10.18;;;6.35;;
13443;SDS011;6794;59.218;18.218;2023-01-24T10:32:58;11.43;;;4.63;;
13443;SDS011;6794;59.218;18.218;2023-01-24T10:35:33;9.50;;;4.43;;
13443;SDS011;6794;59.218;18.218;2023-01-24T10:38:02;7.60;;;3.97;;
13443;SDS011;6794;59.218;18.218;2023-01-24T10:40:30;8.13;;;3.70;;
13443;SDS011;6794;59.218;18.218;2023-01-24T10:42:56;7.80;;;3.37;;
13443;SDS011;6794;59.218;18.218;2023-01-24T10:45:45;7.47;;;3.67;;
13443;SDS011;6794;59.218;18.218;2023-01-24T10:48:31;6.67;;;4.40;;
13443;SDS011;6794;59.218;18.218;2023-01-24T10:51:17;7.23;;;4.43;;
13443;SDS011;6794;59.218;18.218;2023-01-24T10:53:44;6.80;;;4.40;;
13443;SDS011;6794;59.218;18.218;2023-01-24T10:56:10;7.17;;;4.07;;
13443;SDS011;6794;59.218;18.218;2023-01-24T11:01:17;8.10;;;3.97;;
13443;SDS011;6794;59.218;18.218;2023-01-24T11:03:45;8.47;;;4.17;;
13443;SDS011;6794;59.218;18.218;2023-01-24T11:06:22;7.40;;;3.83;;
13443;SDS011;6794;59.218;18.218;2023-01-24T11:08:52;8.03;;;3.67;;
13443;SDS011;6794;59.218;18.218;2023-01-24T11:11:23;10.07;;;4.00;;
13443;SDS011;6794;59.218;18.218;2023-01-24T11:13:52;9.50;;;3.70;;
13443;SDS011;6794;59.218;18.218;2023-01-24T11:16:40;8.53;;;3.87;;
13443;SDS011;6794;59.218;18.218;2023-01-24T11:19:19;8.67;;;4.23;;
13443;SDS011;6794;59.218;18.218;2023-01-24T11:21:50;9.90;;;3.90;;
13443;SDS011;6794;59.218;18.218;2023-01-24T11:24:17;8.93;;;4.07;;
13443;SDS011;6794;59.218;18.218;2023-01-24T11:29:20;8.40;;;4.07;;
13443;SDS011;6794;59.218;18.218;2023-01-24T11:31:47;8.85;;;4.30;;
13443;SDS011;6794;59.218;18.218;2023-01-24T11:41:59;8.50;;;3.93;;
13443;SDS011;6794;59.218;18.218;2023-01-24T11:47:15;6.23;;;4.17;;
13443;SDS011;6794;59.218;18.218;2023-01-24T11:49:47;4.80;;;3.33;;
13443;SDS011;6794;59.218;18.218;2023-01-24T11:57:39;7.80;;;4.07;;
13443;SDS011;6794;59.218;18.218;2023-01-24T12:00:16;7.77;;;3.70;;
13443;SDS011;6794;59.218;18.218;2023-01-24T12:02:53;6.23;;;3.60;;
13443;SDS011;6794;59.218;18.218;2023-01-24T12:05:44;8.55;;;3.70;;
13443;SDS011;6794;59.218;18.218;2023-01-24T12:08:58;7.13;;;3.83;;
13443;SDS011;6794;59.218;18.218;2023-01-24T12:11:11;12.00;;;4.67;;
13443;SDS011;6794;59.218;18.218;2023-01-24T12:16:27;5.17;;;3.20;;
13443;SDS011;6794;59.218;18.218;2023-01-24T12:19:06;8.00;;;3.30;;
13443;SDS011;6794;59.218;18.218;2023-01-24T12:21:34;4.60;;;3.00;;
13443;SDS011;6794;59.218;18.218;2023-01-24T12:26:44;5.60;;;3.50;;
13443;SDS011;6794;59.218;18.218;2023-01-24T12:29:20;12.33;;;3.80;;
13443;SDS011;6794;59.218;18.218;2023-01-24T12:31:49;9.07;;;3.97;;
13443;SDS011;6794;59.218;18.218;2023-01-24T12:39:41;8.05;;;3.80;;
13443;SDS011;6794;59.218;18.218;2023-01-24T12:42:15;6.57;;;3.70;;
13443;SDS011;6794;59.218;18.218;2023-01-24T12:44:50;10.27;;;4.33;;
13443;SDS011;6794;59.218;18.218;2023-01-24T12:50:08;8.27;;;3.70;;
13443;SDS011;6794;59.218;18.218;2023-01-24T12:52:38;4.93;;;3.90;;
13443;SDS011;6794;59.218;18.218;2023-01-24T12:57:39;6.23;;;3.83;;
13443;SDS011;6794;59.218;18.218;2023-01-24T13:00:24;11.00;;;4.27;;
13443;SDS011;6794;59.218;18.218;2023-01-24T13:13:23;9.70;;;4.23;;
13443;SDS011;6794;59.218;18.218;2023-01-24T13:26:24;13.00;;;4.97;;
13443;SDS011;6794;59.218;18.218;2023-01-24T13:29:05;9.73;;;5.20;;
13443;SDS011;6794;59.218;18.218;2023-01-24T13:31:45;8.63;;;5.13;;
13443;SDS011;6794;59.218;18.218;2023-01-24T13:34:13;9.77;;;4.50;;
13443;SDS011;6794;59.218;18.218;2023-01-24T13:36:40;13.97;;;4.97;;
13443;SDS011;6794;59.218;18.218;2023-01-24T13:39:17;11.90;;;4.60;;
13443;SDS011;6794;59.218;18.218;2023-01-24T13:41:59;15.00;;;4.97;;
13443;SDS011;6794;59.218;18.218;2023-01-24T13:44:27;13.17;;;5.23;;
13443;SDS011;6794;59.218;18.218;2023-01-24T13:47:01;9.07;;;4.70;;
13443;SDS011;6794;59.218;18.218;2023-01-24T13:51:54;14.00;;;5.87;;
13443;SDS011;6794;59.218;18.218;2023-01-24T13:54:33;9.43;;;4.93;;
13443;SDS011;6794;59.218;18.218;2023-01-24T14:08:54;8.67;;;4.83;;
13443;SDS011;6794;59.218;18.218;2023-01-24T14:10:50;13.97;;;4.90;;
13443;SDS011;6794;59.218;18.218;2023-01-24T14:16:03;8.47;;;4.60;;
13443;SDS011;6794;59.218;18.218;2023-01-24T14:18:40;7.47;;;4.93;;
13443;SDS011;6794;59.218;18.218;2023-01-24T14:21:16;12.60;;;5.00;;
13443;SDS011;6794;59.218;18.218;2023-01-24T14:23:44;15.95;;;7.63;;
13443;SDS011;6794;59.218;18.218;2023-01-24T14:26:28;11.80;;;5.40;;
13443;SDS011;6794;59.218;18.218;2023-01-24T14:29:03;12.67;;;5.60;;
13443;SDS011;6794;59.218;18.218;2023-01-24T14:31:32;10.87;;;5.80;;
13443;SDS011;6794;59.218;18.218;2023-01-24T14:34:00;12.00;;;6.03;;
13443;SDS011;6794;59.218;18.218;2023-01-24T14:36:30;9.77;;;4.83;;
13443;SDS011;6794;59.218;18.218;2023-01-24T14:39:16;14.00;;;5.13;;
13443;SDS011;6794;59.218;18.218;2023-01-24T14:41:45;11.17;;;4.97;;
13443;SDS011;6794;59.218;18.218;2023-01-24T14:44:17;9.23;;;5.57;;
13443;SDS011;6794;59.218;18.218;2023-01-24T14:46:51;10.27;;;5.03;;
13443;SDS011;6794;59.218;18.218;2023-01-24T14:49:52;13.73;;;5.13;;
13443;SDS011;6794;59.218;18.218;2023-01-24T14:57:21;11.57;;;5.00;;
13443;SDS011;6794;59.218;18.218;2023-01-24T15:02:32;19.20;;;6.93;;
13443;SDS011;6794;59.218;18.218;2023-01-24T15:04:59;13.00;;;6.10;;
13443;SDS011;6794;59.218;18.218;2023-01-24T15:07:25;12.63;;;6.00;;
13443;SDS011;6794;59.218;18.218;2023-01-24T15:09:51;13.17;;;5.67;;
13443;SDS011;6794;59.218;18.218;2023-01-24T15:12:25;12.50;;;5.63;;
13443;SDS011;6794;59.218;18.218;2023-01-24T15:14:54;11.73;;;5.57;;
13443;SDS011;6794;59.218;18.218;2023-01-24T15:17:22;12.50;;;6.17;;
13443;SDS011;6794;59.218;18.218;2023-01-24T15:19:49;12.13;;;5.47;;
13443;SDS011;6794;59.218;18.218;2023-01-24T15:22:21;11.20;;;5.43;;
13443;SDS011;6794;59.218;18.218;2023-01-24T15:24:49;10.23;;;5.43;;
13443;SDS011;6794;59.218;18.218;2023-01-24T15:27:23;13.33;;;5.67;;
13443;SDS011;6794;59.218;18.218;2023-01-24T15:32:41;14.17;;;5.23;;
13443;SDS011;6794;59.218;18.218;2023-01-24T15:35:21;19.33;;;9.38;;
13443;SDS011;6794;59.218;18.218;2023-01-24T15:40:32;16.13;;;6.60;;
13443;SDS011;6794;59.218;18.218;2023-01-24T15:42:59;15.90;;;6.77;;
13443;SDS011;6794;59.218;18.218;2023-01-24T15:45:45;14.60;;;6.00;;
13443;SDS011;6794;59.218;18.218;2023-01-24T15:50:48;17.60;;;7.33;;
13443;SDS011;6794;59.218;18.218;2023-01-24T15:53:35;14.33;;;6.13;;
13443;SDS011;6794;59.218;18.218;2023-01-24T15:56:05;16.03;;;6.87;;
13443;SDS011;6794;59.218;18.218;2023-01-24T15:58:35;10.50;;;6.37;;
13443;SDS011;6794;59.218;18.218;2023-01-24T16:01:01;16.40;;;6.90;;
13443;SDS011;6794;59.218;18.218;2023-01-24T16:03:28;12.00;;;6.03;;
13443;SDS011;6794;59.218;18.218;2023-01-24T16:05:54;16.13;;;8.97;;
13443;SDS011;6794;59.218;18.218;2023-01-24T16:08:20;15.30;;;6.97;;
13443;SDS011;6794;59.218;18.218;2023-01-24T16:10:47;13.07;;;6.73;;
13443;SDS011;6794;59.218;18.218;2023-01-24T16:15:58;13.93;;;6.17;;
13443;SDS011;6794;59.218;18.218;2023-01-24T16:18:24;11.63;;;6.10;;
13443;SDS011;6794;59.218;18.218;2023-01-24T16:20:51;13.70;;;7.47;;
13443;SDS011;6794;59.218;18.218;2023-01-24T16:23:17;17.53;;;10.57;;
13443;SDS011;6794;59.218;18.218;2023-01-24T16:25:43;14.43;;;7.10;;
13443;SDS011;6794;59.218;18.218;2023-01-24T16:28:23;16.53;;;9.90;;
13443;SDS011;6794;59.218;18.218;2023-01-24T16:30:49;11.73;;;6.30;;
13443;SDS011;6794;59.218;18.218;2023-01-24T16:33:16;12.33;;;6.47;;
13443;SDS011;6794;59.218;18.218;2023-01-24T16:35:43;14.73;;;4.77;;
13443;SDS011;6794;59.218;18.218;2023-01-24T16:38:09;7.13;;;4.70;;
13443;SDS011;6794;59.218;18.218;2023-01-24T16:40:36;10.60;;;4.70;;
13443;SDS011;6794;59.218;18.218;2023-01-24T16:43:02;8.27;;;4.50;;
13443;SDS011;6794;59.218;18.218;2023-01-24T16:45:29;13.57;;;7.50;;
13443;SDS011;6794;59.218;18.218;2023-01-24T16:47:55;11.57;;;5.73;;
13443;SDS011;6794;59.218;18.218;2023-01-24T16:50:21;8.17;;;4.60;;
13443;SDS011;6794;59.218;18.218;2023-01-24T16:52:47;9.70;;;4.90;;
13443;SDS011;6794;59.218;18.218;2023-01-24T16:55:13;8.73;;;4.20;;
13443;SDS011;6794;59.218;18.218;2023-01-24T16:57:39;9.13;;;4.73;;
13443;SDS011;6794;59.218;18.218;2023-01-24T17:00:06;9.77;;;5.03;;
13443;SDS011;6794;59.218;18.218;2023-01-24T17:02:37;8.83;;;4.60;;
13443;SDS011;6794;59.218;18.218;2023-01-24T17:05:03;10.43;;;5.70;;
13443;SDS011;6794;59.218;18.218;2023-01-24T17:07:29;15.53;;;5.70;;
13443;SDS011;6794;59.218;18.218;2023-01-24T17:09:55;13.37;;;6.07;;
13443;SDS011;6794;59.218;18.218;2023-01-24T17:12:21;6.33;;;4.03;;
13443;SDS011;6794;59.218;18.218;2023-01-24T17:14:47;7.77;;;4.63;;
13443;SDS011;6794;59.218;18.218;2023-01-24T17:17:13;8.87;;;4.57;;
13443;SDS011;6794;59.218;18.218;2023-01-24T17:19:39;6.65;;;4.40;;
13443;SDS011;6794;59.218;18.218;2023-01-24T17:22:06;10.80;;;4.77;;
13443;SDS011;6794;59.218;18.218;2023-01-24T17:24:32;7.27;;;4.27;;